Time;durP1;ratioP1;P1;durP2;ratioP2;P2;SDS_P1;SDS_P2;PMS_P1;PMS_P2;Temp;Humidity;BMP_temperature;BMP_pressure;BME280_temperature;BME280_humidity;BME280_pressure;Samples;Min_cycle;Max_cycle;Signal;HPM_P1;HPM_P2
2022/06/13 00:00:11;;;;;;;15.10;5.57;;;;;;;11.62;83.98;102026.63;5112679;28;20140;-72
2022/06/13 00:02:37;;;;;;;11.35;5.45;;;;;;;11.54;84.17;102017.13;5112940;28;20035;-72
2022/06/13 00:05:07;;;;;;;15.80;5.25;;;;;;;11.55;84.25;102024.09;5113379;28;20028;-72
2022/06/13 00:07:32;;;;;;;15.60;5.82;;;;;;;11.46;85.16;102020.66;5117153;28;20089;-71
2022/06/13 00:09:58;;;;;;;14.10;5.65;;;;;;;11.42;85.48;102018.97;5116661;28;20015;-71
2022/06/13 00:12:24;;;;;;;15.80;5.40;;;;;;;11.41;85.57;102017.25;5116029;28;20536;-72
2022/06/13 00:14:49;;;;;;;15.80;5.38;;;;;;;11.39;86.12;102020.75;5116403;28;20020;-72
2022/06/13 00:17:14;;;;;;;13.38;5.93;;;;;;;11.35;86.52;102017.28;5116537;28;20115;-72
2022/06/13 00:19:39;;;;;;;14.40;5.75;;;;;;;11.33;86.88;102007.72;5116063;28;20026;-72
2022/06/13 00:22:05;;;;;;;12.02;5.80;;;;;;;11.32;87.48;102004.25;5116492;28;20088;-72
2022/06/13 00:24:31;;;;;;;12.70;5.35;;;;;;;11.33;87.75;102005.97;5116657;28;20024;-72
2022/06/13 00:26:56;;;;;;;15.43;6.13;;;;;;;11.35;87.86;102006.84;5115446;28;20023;-71
2022/06/13 00:29:22;;;;;;;18.13;6.10;;;;;;;11.31;88.00;102007.72;5116291;28;20588;-72
2022/06/13 00:31:47;;;;;;;11.30;5.40;;;;;;;11.40;87.69;102002.44;5116074;28;20028;-72
2022/06/13 00:34:12;;;;;;;19.17;5.95;;;;;;;11.48;87.82;102003.25;5115646;28;20016;-72
2022/06/13 00:36:38;;;;;;;14.52;5.93;;;;;;;11.56;87.88;102004.91;5116405;28;20055;-72
2022/06/13 00:39:03;;;;;;;10.15;5.25;;;;;;;11.61;88.03;102005.75;5115443;28;20047;-72
2022/06/13 00:41:33;;;;;;;13.20;6.10;;;;;;;11.62;87.78;101997.03;5116353;28;20046;-72
2022/06/13 00:43:59;;;;;;;21.38;6.38;;;;;;;11.63;87.77;101997.00;5115870;28;20364;-72
2022/06/13 00:46:32;;;;;;;17.67;6.22;;;;;;;11.72;87.46;102001.28;5115313;28;20549;-72
2022/06/13 00:49:03;;;;;;;13.55;6.38;;;;;;;11.82;87.79;101991.59;5115974;28;20031;-72
2022/06/13 00:51:31;;;;;;;18.27;6.43;;;;;;;11.97;87.38;101991.50;5116130;28;20471;-71
2022/06/13 00:53:56;;;;;;;20.13;6.55;;;;;;;12.06;87.17;101987.88;5115005;28;20035;-72
2022/06/13 00:56:25;;;;;;;17.40;6.95;;;;;;;12.11;87.24;101986.97;5115773;28;20050;-71
2022/06/13 00:59:03;;;;;;;14.55;6.60;;;;;;;12.20;86.31;102001.69;5115712;28;20024;-72
2022/06/13 01:01:29;;;;;;;17.00;6.45;;;;;;;12.25;85.77;101992.03;5115276;28;20038;-72
2022/06/13 01:03:57;;;;;;;15.57;6.90;;;;;;;12.28;86.60;101994.59;5115391;28;20024;-72
2022/06/13 01:06:25;;;;;;;14.38;6.30;;;;;;;12.27;87.33;101986.78;5115852;28;20031;-71
2022/06/13 01:08:50;;;;;;;15.90;6.13;;;;;;;12.39;86.61;101989.22;5114654;28;20364;-72
2022/06/13 01:11:20;;;;;;;20.77;6.80;;;;;;;12.44;86.29;101989.19;5115602;28;20034;-72
2022/06/13 01:14:07;;;;;;;15.32;6.97;;;;;;;12.46;85.97;101988.28;5115246;28;20483;-72
2022/06/13 01:16:47;;;;;;;16.58;6.40;;;;;;;12.46;86.51;101987.41;5114356;28;20383;-72
2022/06/13 01:19:31;;;;;;;18.48;6.65;;;;;;;12.43;84.93;101990.09;5115528;28;20421;-72
2022/06/13 01:22:14;;;;;;;22.45;6.72;;;;;;;12.54;85.14;102002.13;5114485;28;20039;-71
2022/06/13 01:25:06;;;;;;;;;;;;;;;12.60;83.14;101985.47;5115764;28;20463;-72
2022/06/13 01:27:55;;;;;;;18.23;6.93;;;;;;;12.53;84.88;101986.47;5115673;28;19918;-72
2022/06/13 01:30:33;;;;;;;23.13;6.97;;;;;;;12.51;85.78;101983.00;5114456;28;20114;-72
2022/06/13 01:33:21;;;;;;;26.73;7.25;;;;;;;12.53;85.30;101987.31;5115026;28;20114;-72
2022/06/13 01:36:04;;;;;;;28.40;7.05;;;;;;;12.53;86.01;101981.22;5113781;28;20123;-72
2022/06/13 01:38:51;;;;;;;21.88;7.18;;;;;;;12.55;87.10;101971.59;5115034;28;20348;-72
2022/06/13 01:41:32;;;;;;;25.42;7.05;;;;;;;12.59;85.99;101970.69;5115314;28;20042;-72
2022/06/13 01:44:09;;;;;;;18.45;6.57;;;;;;;12.60;86.15;101964.56;5113919;28;20028;-72
2022/06/13 01:46:55;;;;;;;19.08;6.72;;;;;;;12.63;85.73;101962.75;5115028;28;20068;-72
2022/06/13 01:49:20;;;;;;;19.85;6.63;;;;;;;12.67;85.91;101966.19;5114087;28;20439;-72
2022/06/13 01:51:57;;;;;;;24.23;7.50;;;;;;;12.69;85.83;101964.44;5114534;28;20111;-72
2022/06/13 01:54:38;;;;;;;17.55;6.55;;;;;;;12.70;85.74;101967.91;5114966;28;20292;-72
2022/06/13 01:57:35;;;;;;;18.92;7.00;;;;;;;12.67;85.71;101967.94;5113542;28;20043;-72
2022/06/13 02:00:17;;;;;;;20.15;7.03;;;;;;;12.68;85.40;101967.91;5111221;28;20043;-72
2022/06/13 02:03:07;;;;;;;16.35;7.40;;;;;;;12.68;85.82;101973.16;5114432;28;20031;-72
2022/06/13 02:05:39;;;;;;;15.57;6.95;;;;;;;12.70;86.42;101973.16;5113746;28;20023;-72
2022/06/13 02:08:12;;;;;;;19.38;7.03;;;;;;;12.70;85.52;101974.00;5114538;28;20019;-72
2022/06/13 02:10:43;;;;;;;20.08;6.93;;;;;;;12.70;86.48;101971.38;5113938;28;20474;-71
2022/06/13 02:13:19;;;;;;;16.15;6.90;;;;;;;12.69;87.08;101968.78;5114646;28;20019;-72
2022/06/13 02:15:50;;;;;;;15.48;6.53;;;;;;;12.70;86.77;101976.63;5114088;28;20028;-72
2022/06/13 02:18:22;;;;;;;17.67;7.28;;;;;;;12.70;86.60;101973.16;5113491;28;20028;-72
2022/06/13 02:20:53;;;;;;;16.48;7.18;;;;;;;12.75;86.88;101977.44;5114178;28;20485;-72
2022/06/13 02:23:23;;;;;;;19.00;7.20;;;;;;;12.82;86.78;101971.22;5114218;28;20479;-71
2022/06/13 02:25:53;;;;;;;15.93;7.00;;;;;;;12.90;87.41;101976.31;5113437;28;20035;-72
2022/06/13 02:28:38;;;;;;;23.48;6.68;;;;;;;12.96;86.50;101976.22;5113950;28;20110;-72
2022/06/13 02:31:13;;;;;;;17.60;6.38;;;;;;;12.96;86.60;101970.13;5113969;28;20028;-72
2022/06/13 02:33:46;;;;;;;15.15;6.80;;;;;;;13.01;86.43;101969.16;5113302;28;20020;-72
2022/06/13 02:36:16;;;;;;;13.00;6.85;;;;;;;13.01;85.45;101963.91;5114031;28;20168;-72
2022/06/13 02:39:00;;;;;;;14.02;7.22;;;;;;;13.05;86.03;101976.09;5112962;28;20023;-72
2022/06/13 02:41:30;;;;;;;15.02;7.07;;;;;;;13.08;86.67;101969.97;5114301;28;20031;-71
2022/06/13 02:44:05;;;;;;;13.98;7.00;;;;;;;13.08;86.82;101964.72;5113676;28;20059;-72
2022/06/13 02:46:34;;;;;;;13.93;6.35;;;;;;;13.09;86.54;101958.59;5113044;28;20023;-72
2022/06/13 02:49:15;;;;;;;10.77;6.53;;;;;;;13.00;86.22;101951.72;5113414;28;20477;-72
2022/06/13 02:51:57;;;;;;;15.30;7.07;;;;;;;13.00;85.70;101959.59;5113384;28;20028;-72
2022/06/13 02:54:31;;;;;;;17.10;7.90;;;;;;;12.93;86.52;101964.94;5113074;28;20028;-72
2022/06/13 02:57:24;;;;;;;12.73;7.25;;;;;;;12.91;86.83;101961.47;5113220;28;20079;-72
2022/06/13 03:00:26;;;;;;;15.65;7.57;;;;;;;12.84;86.49;101963.31;5112373;28;20016;-72
2022/06/13 03:03:23;;;;;;;15.90;7.47;;;;;;;12.75;85.96;101961.72;5113211;28;20455;-72
2022/06/13 03:06:04;;;;;;;15.73;7.03;;;;;;;12.64;86.60;101963.63;5113286;28;20024;-71
2022/06/13 03:08:49;;;;;;;15.55;7.32;;;;;;;12.56;87.33;101961.13;5112769;28;20050;-72
2022/06/13 03:11:26;;;;;;;13.88;7.50;;;;;;;12.50;87.89;101962.97;5113730;28;20038;-72
2022/06/13 03:14:11;;;;;;;17.25;8.13;;;;;;;12.40;88.53;101968.31;5112437;28;20023;-72
2022/06/13 03:17:02;;;;;;;20.38;8.70;;;;;;;12.38;89.01;101967.44;5113455;28;20031;-72
2022/06/13 03:19:41;;;;;;;13.23;7.57;;;;;;;12.40;89.51;101973.53;5113492;28;20059;-72
2022/06/13 03:22:25;;;;;;;14.50;7.40;;;;;;;12.35;88.93;101982.31;5112454;28;20470;-72
2022/06/13 03:25:17;;;;;;;18.92;8.60;;;;;;;12.35;88.99;101983.16;5113049;28;20028;-72
2022/06/13 03:27:48;;;;;;;20.02;7.53;;;;;;;12.31;89.96;101976.25;5103345;28;20036;-72
2022/06/13 03:30:18;;;;;;;15.75;7.85;;;;;;;12.30;90.22;101973.69;5113444;28;20027;-72
2022/06/13 03:33:40;;;;;;;16.13;8.43;;;;;;;12.28;89.84;101975.44;5113092;28;20030;-72
2022/06/13 03:35:37;;;;;;;19.77;8.25;;;;;;;12.27;90.00;101969.34;5112298;28;20126;-71
2022/06/13 03:38:06;;;;;;;19.70;8.90;;;;;;;12.22;90.57;101965.91;5112786;28;20104;-72
2022/06/13 03:40:35;;;;;;;19.17;8.85;;;;;;;12.15;90.06;101979.94;5115768;28;20036;-72
2022/06/13 03:43:17;;;;;;;20.90;7.97;;;;;;;12.09;90.65;101985.25;5116313;28;20019;-72
2022/06/13 03:45:55;;;;;;;21.48;8.55;;;;;;;12.04;91.25;101989.69;5116990;28;20024;-72
2022/06/13 03:48:35;;;;;;;17.65;8.07;;;;;;;12.04;91.49;101987.06;5117457;28;20031;-72
2022/06/13 03:51:10;;;;;;;23.25;8.48;;;;;;;12.01;92.02;101992.31;5116297;28;20029;-72
2022/06/13 03:53:45;;;;;;;15.18;7.88;;;;;;;11.99;91.72;101992.31;5117314;27;20028;-72
2022/06/13 03:56:30;;;;;;;13.77;8.73;;;;;;;11.94;91.93;101996.75;5116088;28;20032;-71
2022/06/13 03:59:16;;;;;;;19.13;8.80;;;;;;;11.87;92.96;101995.94;5116925;28;20376;-72
2022/06/13 04:01:58;;;;;;;19.05;8.77;;;;;;;11.83;92.55;101995.94;5116974;28;20024;-72
2022/06/13 04:04:33;;;;;;;16.77;8.40;;;;;;;11.79;93.09;102002.94;5116175;28;20024;-72
2022/06/13 04:07:01;;;;;;;18.95;9.25;;;;;;;11.76;93.79;102005.59;5116560;27;20015;-72
2022/06/13 04:09:34;;;;;;;16.55;8.70;;;;;;;11.72;93.98;102001.28;5116975;28;20039;-71
2022/06/13 04:12:21;;;;;;;21.15;8.63;;;;;;;11.68;94.04;101996.97;5115648;28;20111;-71
2022/06/13 04:15:04;;;;;;;20.02;8.68;;;;;;;11.67;94.39;102003.06;5116497;28;20070;-71
2022/06/13 04:17:57;;;;;;;18.77;8.93;;;;;;;11.65;93.57;102008.31;5116097;28;20026;-72
2022/06/13 04:20:38;;;;;;;20.65;8.57;;;;;;;11.67;94.64;102006.56;5116811;28;20038;-72
2022/06/13 04:23:40;;;;;;;21.73;9.27;;;;;;;11.63;94.29;102007.44;5116374;28;20111;-72
2022/06/13 04:26:19;;;;;;;17.60;9.10;;;;;;;11.64;94.53;102009.22;5115877;28;20031;-72
2022/06/13 04:28:55;;;;;;;18.73;9.02;;;;;;;11.64;94.66;102021.38;5116291;28;20035;-71
2022/06/13 04:31:24;;;;;;;24.70;9.55;;;;;;;11.60;95.32;102017.06;5115706;28;20047;-71
2022/06/13 04:33:54;;;;;;;24.92;10.70;;;;;;;11.63;95.58;102020.50;5116049;28;20047;-72
2022/06/13 04:36:22;;;;;;;20.38;9.48;;;;;;;11.69;95.58;102017.00;5116498;28;20102;-71
2022/06/13 04:38:52;;;;;;;14.43;8.57;;;;;;;11.84;96.02;102024.72;5115399;28;20103;-71
2022/06/13 04:41:23;;;;;;;18.88;9.23;;;;;;;11.93;95.65;102021.13;5116271;28;20432;-72
2022/06/13 04:43:52;;;;;;;19.52;9.50;;;;;;;12.05;95.48;102025.38;5116078;28;20038;-72
2022/06/13 04:46:21;;;;;;;17.83;8.95;;;;;;;12.19;94.48;102028.69;5115303;28;20394;-72
2022/06/13 04:48:49;;;;;;;20.25;9.32;;;;;;;12.32;94.98;102027.66;5116090;28;20058;-72
2022/06/13 04:51:19;;;;;;;23.02;9.75;;;;;;;12.47;94.43;102025.75;5116371;28;20421;-72
2022/06/13 04:53:56;;;;;;;19.63;9.73;;;;;;;12.57;94.20;102017.78;5114974;28;20476;-72
2022/06/13 04:56:23;;;;;;;17.50;8.55;;;;;;;12.67;93.55;102021.13;5115761;28;20082;-72
2022/06/13 04:58:52;;;;;;;17.73;9.32;;;;;;;12.74;93.06;102030.63;5115493;28;20048;-72
2022/06/13 05:01:33;;;;;;;15.63;9.00;;;;;;;12.89;93.20;102029.56;5115230;28;20019;-72
2022/06/13 05:04:01;;;;;;;21.20;10.40;;;;;;;13.00;92.70;102032.03;5115704;27;20103;-72
2022/06/13 05:06:42;;;;;;;24.63;10.15;;;;;;;13.06;91.35;102029.31;5114950;28;20554;-71
2022/06/13 05:09:08;;;;;;;22.00;9.93;;;;;;;13.15;91.95;102031.81;5115773;28;20024;-72
2022/06/13 05:11:46;;;;;;;19.50;9.80;;;;;;;13.24;91.91;102034.31;5115874;28;20097;-72
2022/06/13 05:14:42;;;;;;;23.40;10.80;;;;;;;13.38;91.39;102036.72;5114758;28;20749;-71
2022/06/13 05:17:32;;;;;;;24.40;10.23;;;;;;;13.47;91.86;102027.81;5081523;28;20451;-72
2022/06/13 05:20:25;;;;;;;26.75;10.45;;;;;;;13.60;91.00;102037.19;5115556;28;20088;-72
2022/06/13 05:23:19;;;;;;;20.63;10.10;;;;;;;13.65;89.87;102045.84;5115238;28;20035;-72
2022/06/13 05:25:54;;;;;;;23.80;11.30;;;;;;;13.65;90.80;102045.00;5115009;28;20051;-72
2022/06/13 05:28:22;;;;;;;25.85;10.50;;;;;;;13.67;90.73;102048.44;5114786;28;20031;-71
2022/06/13 05:30:54;;;;;;;19.20;9.95;;;;;;;13.68;90.93;102042.34;5114999;28;20344;-72
2022/06/13 05:33:24;;;;;;;21.80;9.77;;;;;;;13.77;91.77;102048.28;5115409;27;20035;-72
2022/06/13 05:35:53;;;;;;;20.52;10.32;;;;;;;13.88;91.18;102050.69;5114162;27;20023;-72
2022/06/13 05:38:41;;;;;;;26.65;10.88;;;;;;;13.99;90.07;102059.22;5115290;28;20019;-72
2022/06/13 05:41:07;;;;;;;20.48;10.07;;;;;;;14.02;90.66;102059.16;5115277;28;20424;-72
2022/06/13 05:43:32;;;;;;;22.05;9.95;;;;;;;14.08;89.55;102054.72;5114295;28;20068;-72
2022/06/13 05:45:58;;;;;;;21.35;10.70;;;;;;;14.16;90.10;102058.94;5114637;28;20110;-72
2022/06/13 05:48:24;;;;;;;21.92;9.65;;;;;;;14.38;90.15;102066.38;5114152;28;20024;-72
2022/06/13 05:50:49;;;;;;;22.85;10.15;;;;;;;14.58;90.12;102069.47;5114452;28;20382;-72
2022/06/13 05:53:19;;;;;;;22.40;9.57;;;;;;;14.77;88.54;102064.72;5115057;28;20028;-72
2022/06/13 05:55:45;;;;;;;17.50;9.52;;;;;;;14.88;87.27;102062.72;5113681;28;20032;-72
2022/06/13 05:58:13;;;;;;;15.57;8.70;;;;;;;14.99;87.80;102065.13;5114833;28;20436;-72
2022/06/13 06:00:44;;;;;;;22.95;10.05;;;;;;;15.09;85.73;102079.75;5114847;28;20023;-72
2022/06/13 06:03:09;;;;;;;17.23;9.57;;;;;;;15.19;85.73;102081.28;5113189;28;20116;-71
2022/06/13 06:05:35;;;;;;;20.55;9.70;;;;;;;15.32;86.57;102091.50;5114810;28;20051;-72
2022/06/13 06:08:00;;;;;;;18.98;10.25;;;;;;;15.37;84.42;102084.41;5114449;28;20509;-72
2022/06/13 06:10:31;;;;;;;17.98;8.95;;;;;;;15.44;84.54;102093.84;5113661;28;20032;-72
2022/06/13 06:12:56;;;;;;;23.60;9.65;;;;;;;15.49;84.35;102091.09;5114301;28;20032;-72
2022/06/13 06:15:21;;;;;;;22.00;10.00;;;;;;;15.54;83.14;102097.97;5114303;28;20494;-72
2022/06/13 06:17:47;;;;;;;16.35;9.68;;;;;;;15.60;82.65;102099.59;5113344;27;20076;-72
2022/06/13 06:20:21;;;;;;;20.85;8.93;;;;;;;15.73;83.46;102103.69;5114272;28;20489;-72
2022/06/13 06:22:47;;;;;;;17.35;8.23;;;;;;;15.88;82.40;102099.81;5114118;28;20035;-72
2022/06/13 06:25:13;;;;;;;18.90;8.98;;;;;;;16.00;83.89;102106.53;5113605;28;20598;-72
2022/06/13 06:27:41;;;;;;;16.48;7.75;;;;;;;16.02;80.32;102100.31;5114181;28;20024;-72
2022/06/13 06:30:07;;;;;;;19.27;8.10;;;;;;;16.12;80.82;102100.91;5114160;28;20051;-72
2022/06/13 06:32:33;;;;;;;19.13;7.78;;;;;;;16.11;80.32;102092.16;5113187;28;20027;-72
2022/06/13 06:34:58;;;;;;;20.27;7.07;;;;;;;16.18;75.75;102103.38;5113935;28;20141;-72
2022/06/13 06:37:23;;;;;;;17.30;6.82;;;;;;;16.09;76.01;102106.28;5114017;28;20027;-72
2022/06/13 06:39:49;;;;;;;15.50;6.47;;;;;;;15.86;77.87;102117.41;5112940;28;20026;-72
2022/06/13 06:42:14;;;;;;;14.77;6.60;;;;;;;15.61;79.40;102112.69;5113939;28;20045;-72
2022/06/13 06:44:39;;;;;;;17.10;6.97;;;;;;;15.53;79.05;102122.56;5113111;28;20386;-72
2022/06/13 06:47:06;;;;;;;11.93;4.63;;;;;;;15.46;78.37;102126.19;5113372;28;20032;-72
2022/06/13 06:49:34;;;;;;;13.50;5.30;;;;;;;15.55;77.68;102136.50;5113977;28;20031;-72
2022/06/13 06:52:01;;;;;;;12.88;4.50;;;;;;;15.59;74.12;102130.25;5112847;28;20032;-72
2022/06/13 06:59:56;;;;;;;13.07;3.78;;;;;;;16.08;71.44;102123.81;5112687;28;20548;-72
2022/06/13 07:02:23;;;;;;;13.15;3.92;;;;;;;16.03;72.27;102127.50;5113749;28;20062;-72
2022/06/13 07:04:59;;;;;;;15.65;3.72;;;;;;;15.88;73.80;102123.47;5113146;28;20455;-72
2022/06/13 07:07:25;;;;;;;9.80;3.22;;;;;;;15.68;71.24;102132.72;5112781;28;20027;-72
2022/06/13 07:09:51;;;;;;;8.70;3.22;;;;;;;15.67;72.50;102136.25;5113185;28;20039;-72
2022/06/13 07:12:16;;;;;;;11.90;3.35;;;;;;;15.72;73.27;102135.25;5113675;28;20164;-72
2022/06/13 07:14:42;;;;;;;9.27;3.17;;;;;;;15.79;73.76;102131.59;5111620;28;20379;-72
2022/06/13 07:17:08;;;;;;;10.35;3.00;;;;;;;15.75;70.31;102127.31;5113481;28;20024;-72
2022/06/13 07:19:34;;;;;;;8.55;2.97;;;;;;;15.81;69.07;102129.78;5113458;28;20028;-72
2022/06/13 07:22:01;;;;;;;11.20;3.05;;;;;;;15.82;70.30;102135.00;5112223;28;20024;-72
2022/06/13 07:24:28;;;;;;;11.05;2.97;;;;;;;15.93;69.94;102147.03;5113201;28;20038;-72
2022/06/13 07:26:54;;;;;;;8.40;2.50;;;;;;;16.04;67.87;102140.59;5112317;28;20030;-72
2022/06/13 07:29:21;;;;;;;7.40;2.75;;;;;;;16.30;67.62;102141.69;5113224;28;20086;-72
2022/06/13 07:31:49;;;;;;;10.05;3.25;;;;;;;16.80;66.77;102131.53;5113182;28;20031;-72
2022/06/13 07:34:20;;;;;;;9.52;3.15;;;;;;;17.22;62.86;102139.94;5112546;28;20024;-72
2022/06/13 07:36:47;;;;;;;10.02;2.70;;;;;;;17.43;62.87;102146.31;5112969;28;20100;-72
2022/06/13 07:39:13;;;;;;;10.15;2.50;;;;;;;17.51;64.80;102141.66;5113145;28;20101;-72
2022/06/13 07:41:39;;;;;;;8.85;2.53;;;;;;;17.58;64.66;102142.31;5112810;28;20114;-72
2022/06/13 07:44:06;;;;;;;11.75;2.97;;;;;;;17.62;62.09;102143.09;5112693;28;20467;-72
2022/06/13 07:46:32;;;;;;;8.30;3.13;;;;;;;17.58;62.67;102146.75;5113054;28;20077;-72
2022/06/13 07:48:57;;;;;;;7.97;2.53;;;;;;;17.49;62.25;102143.50;5111928;28;20023;-72
2022/06/13 07:51:23;;;;;;;11.02;3.30;;;;;;;17.44;62.17;102150.69;5112924;28;20059;-72
2022/06/13 07:53:49;;;;;;;9.52;2.78;;;;;;;17.48;61.02;102139.13;5112662;28;20027;-72
2022/06/13 07:56:19;;;;;;;7.50;3.40;;;;;;;17.28;61.07;102147.66;5112105;28;20470;-72
2022/06/13 07:58:47;;;;;;;8.63;3.00;;;;;;;17.11;61.71;102152.59;5112438;28;20056;-72
2022/06/13 08:01:13;;;;;;;8.93;2.88;;;;;;;17.00;62.02;102150.28;5113004;28;20028;-72
2022/06/13 08:03:39;;;;;;;10.23;3.40;;;;;;;16.94;63.85;102155.72;5111980;28;20459;-72
2022/06/13 08:06:06;;;;;;;9.70;3.55;;;;;;;17.01;61.60;102164.31;5112538;28;20019;-72
2022/06/13 08:08:35;;;;;;;5.85;2.95;;;;;;;17.15;61.25;102163.88;5113083;28;20023;-75
2022/06/13 08:11:03;;;;;;;12.25;3.30;;;;;;;17.23;62.11;102173.31;5111998;28;20845;-72
2022/06/13 08:13:29;;;;;;;10.30;3.10;;;;;;;17.35;60.71;102172.03;5112956;28;20023;-72
2022/06/13 08:15:55;;;;;;;13.70;3.58;;;;;;;17.46;63.56;102171.72;5112568;28;20066;-73
2022/06/13 08:18:21;;;;;;;10.63;3.70;;;;;;;17.49;63.96;102179.53;5111927;28;20104;-72
2022/06/13 08:20:46;;;;;;;8.90;3.00;;;;;;;17.67;64.00;102178.09;5112401;28;20117;-72
2022/06/13 08:23:13;;;;;;;7.50;3.05;;;;;;;18.09;61.79;102180.28;5112084;28;20024;-73
2022/06/13 08:25:39;;;;;;;8.13;2.60;;;;;;;18.47;57.61;102173.66;5113640;28;20400;-73
2022/06/13 08:28:06;;;;;;;6.35;2.10;;;;;;;18.54;55.62;102177.81;5116420;28;20015;-73
2022/06/13 08:30:49;;;;;;;5.03;2.33;;;;;;;18.23;56.92;102170.09;5115833;28;20122;-72
2022/06/13 08:33:16;;;;;;;6.65;2.42;;;;;;;18.02;57.26;102174.34;5116472;28;20027;-72
2022/06/13 08:35:41;;;;;;;6.53;2.25;;;;;;;18.09;59.18;102189.06;5115938;28;20092;-72
2022/06/13 08:38:07;;;;;;;5.60;2.42;;;;;;;18.10;58.21;102185.50;5115732;28;20055;-72
2022/06/13 08:41:07;;;;;;;8.60;2.47;;;;;;;17.94;60.26;102195.69;5116390;28;20114;-72
2022/06/13 08:43:57;;;;;;;6.97;2.42;;;;;;;17.90;60.42;102193.22;5111687;28;20036;-72
2022/06/13 08:46:39;;;;;;;9.98;2.83;;;;;;;18.01;62.03;102193.72;5115561;28;20391;-72
2022/06/13 08:49:27;;;;;;;5.65;2.40;;;;;;;18.26;60.58;102196.41;5116123;28;20382;-72
2022/06/13 08:52:11;;;;;;;9.68;2.50;;;;;;;18.44;60.03;102187.84;5114948;28;20459;-72
2022/06/13 08:54:37;;;;;;;;;;;;;;;18.80;61.11;102202.44;5116717;28;20028;-72
2022/06/13 08:57:08;;;;;;;5.72;2.05;;;;;;;19.25;55.41;102196.38;5115522;28;19922;-73
2022/06/13 08:59:49;;;;;;;8.43;2.17;;;;;;;19.53;52.31;102193.53;5115569;28;20455;-73
2022/06/13 09:02:40;;;;;;;8.85;2.67;;;;;;;19.50;54.92;102191.00;5115915;28;20096;-72
2022/06/13 09:05:12;;;;;;;6.68;2.13;;;;;;;19.40;54.09;102204.59;5115867;28;20123;-73
2022/06/13 09:07:45;;;;;;;7.47;2.35;;;;;;;19.59;55.48;102199.44;5114945;28;20485;-73
2022/06/13 09:10:38;;;;;;;8.85;2.13;;;;;;;19.90;53.25;102205.31;5115811;28;20035;-72
2022/06/13 09:13:27;;;;;;;6.18;1.85;;;;;;;20.09;54.15;102214.22;5114510;28;20394;-72
2022/06/13 09:16:04;;;;;;;5.25;1.77;;;;;;;19.92;51.97;102214.06;5115491;28;20034;-73
2022/06/13 09:18:39;;;;;;;6.78;2.00;;;;;;;19.60;49.13;102213.53;5115835;28;20031;-73
2022/06/13 09:21:10;;;;;;;4.28;1.60;;;;;;;19.35;52.21;102230.31;5114498;28;20126;-73
2022/06/13 09:24:07;;;;;;;6.75;1.70;;;;;;;19.58;52.41;102218.00;5115637;28;20062;-73
2022/06/13 09:26:45;;;;;;;3.92;1.55;;;;;;;19.57;51.06;102217.13;5098232;28;20061;-73
2022/06/13 09:29:18;;;;;;;5.25;1.60;;;;;;;19.39;48.58;102226.66;5115375;28;20042;-72
2022/06/13 09:31:44;;;;;;;;;;;;;;;19.36;52.78;102226.78;5115679;28;20062;-72
2022/06/13 09:34:22;;;;;;;4.28;1.38;;;;;;;19.24;53.33;102227.25;5114552;28;20447;-73
2022/06/13 09:37:03;;;;;;;5.75;2.00;;;;;;;19.50;55.10;102233.31;5114426;28;20420;-73
2022/06/13 09:39:28;;;;;;;4.28;1.45;;;;;;;19.61;50.48;102231.97;5115567;28;20406;-73
2022/06/13 09:42:15;;;;;;;4.82;1.40;;;;;;;19.70;52.13;102241.38;5113923;28;20016;-73
2022/06/13 09:45:17;;;;;;;4.75;1.10;;;;;;;19.90;51.58;102240.56;5114809;28;20528;-73
2022/06/13 09:48:10;;;;;;;3.80;1.40;;;;;;;20.26;51.89;102240.81;5113768;28;20475;-73
2022/06/13 09:50:50;;;;;;;8.73;1.55;;;;;;;20.53;51.38;102246.75;5115184;28;20038;-72
2022/06/13 09:53:22;;;;;;;7.13;2.20;;;;;;;20.47;50.55;102238.19;5115187;28;20023;-73
2022/06/13 09:55:51;;;;;;;5.80;2.43;;;;;;;20.38;51.14;102255.34;5113346;28;20027;-73
2022/06/13 09:58:24;;;;;;;9.13;2.17;;;;;;;20.15;49.39;102251.03;5114812;28;20066;-72
2022/06/13 10:01:07;;;;;;;7.70;3.40;;;;;;;19.87;50.73;102254.78;5114392;28;20027;-72
2022/06/13 10:03:50;;;;;;;10.65;3.97;;;;;;;19.84;51.40;102252.25;5114121;27;20110;-73
2022/06/13 10:06:30;;;;;;;6.80;3.53;;;;;;;20.06;54.53;102257.53;5114867;28;20115;-73
2022/06/13 10:09:04;;;;;;;7.28;3.70;;;;;;;20.15;53.57;102252.81;5113720;28;20043;-72
2022/06/13 10:11:41;;;;;;;6.97;2.78;;;;;;;20.08;51.42;102257.50;5114772;28;20031;-73
2022/06/13 10:14:24;;;;;;;6.63;2.80;;;;;;;20.13;52.60;102257.28;5114708;28;20078;-73
2022/06/13 10:17:05;;;;;;;5.07;1.92;;;;;;;20.45;51.63;102251.50;5113312;28;20050;-73
2022/06/13 10:20:04;;;;;;;5.53;1.95;;;;;;;20.85;49.78;102254.25;5114413;28;20051;-73
2022/06/13 10:23:01;;;;;;;4.07;1.58;;;;;;;21.22;50.40;102256.09;5114540;28;20038;-73
2022/06/13 10:25:54;;;;;;;7.43;1.73;;;;;;;21.22;47.45;102264.94;5114138;28;20440;-73
2022/06/13 10:28:30;;;;;;;3.05;1.70;;;;;;;21.63;46.61;102253.34;5114382;28;20028;-73
2022/06/13 10:31:10;;;;;;;4.55;1.80;;;;;;;21.54;45.54;102259.09;5113316;28;20019;-73
2022/06/13 10:34:06;;;;;;;4.63;1.80;;;;;;;21.15;48.66;102257.31;5114203;28;20099;-73
2022/06/13 10:36:54;;;;;;;5.32;1.80;;;;;;;20.66;49.29;102270.94;5114257;28;20032;-73
2022/06/13 10:39:23;;;;;;;3.83;1.70;;;;;;;20.52;49.69;102257.44;5114032;28;20479;-73
2022/06/13 10:41:52;;;;;;;5.32;1.58;;;;;;;20.55;49.49;102252.88;5113627;27;20352;-73
2022/06/13 10:44:19;;;;;;;4.90;1.70;;;;;;;20.92;48.21;102255.69;5113037;27;20019;-73
2022/06/13 10:46:55;;;;;;;4.22;2.25;;;;;;;20.81;46.88;102251.72;5113333;27;20490;-73
2022/06/13 10:49:28;;;;;;;5.32;2.22;;;;;;;20.98;47.10;102258.06;5113764;28;20027;-73
2022/06/13 10:52:01;;;;;;;6.28;2.53;;;;;;;21.41;49.16;102253.50;5112680;28;20371;-73
2022/06/13 10:54:33;;;;;;;7.93;2.10;;;;;;;21.77;45.90;102248.22;5113752;28;20467;-73
2022/06/13 10:57:07;;;;;;;4.60;1.70;;;;;;;21.85;47.45;102263.81;5113217;28;20047;-73
2022/06/13 10:59:36;;;;;;;3.60;1.80;;;;;;;21.99;42.33;102250.69;5113005;28;20028;-73
2022/06/13 11:02:16;;;;;;;4.35;2.25;;;;;;;22.34;45.45;102253.44;5113188;28;20383;-73
2022/06/13 11:04:41;;;;;;;4.53;2.03;;;;;;;22.33;44.58;102264.97;5113345;28;20058;-73
2022/06/13 11:07:19;;;;;;;3.30;1.88;;;;;;;22.22;47.37;102254.91;5112772;28;20047;-73
2022/06/13 11:10:03;;;;;;;3.38;1.83;;;;;;;22.35;46.74;102252.50;5113186;28;20028;-72
2022/06/13 11:12:32;;;;;;;3.80;1.80;;;;;;;22.49;45.68;102260.59;5112834;28;20020;-73
2022/06/13 11:23:52;;;;;;;4.07;1.60;;;;;;;21.82;42.76;102280.72;5113137;28;20547;-73
2022/06/13 11:29:03;;;;;;;6.38;1.42;;;;;;;21.92;46.22;102271.38;5113275;28;20046;-73
2022/06/13 11:31:29;;;;;;;5.45;1.40;;;;;;;22.07;46.99;102267.13;5113368;28;20031;-73
2022/06/13 11:33:55;;;;;;;3.50;1.35;;;;;;;22.28;45.67;102267.03;5112155;28;20076;-72
2022/06/13 11:36:25;;;;;;;3.60;1.45;;;;;;;22.43;41.26;102261.81;5113025;28;20452;-73
2022/06/13 11:39:00;;;;;;;7.70;1.58;;;;;;;22.83;46.84;102258.88;5112782;28;20019;-73
2022/06/13 11:41:39;;;;;;;3.55;1.40;;;;;;;23.31;41.35;102267.84;5112530;28;20035;-73
2022/06/13 11:44:15;;;;;;;6.93;1.45;;;;;;;23.23;41.99;102259.44;5113193;28;20100;-73
2022/06/13 11:46:56;;;;;;;3.63;1.73;;;;;;;22.66;42.43;102263.28;5112847;28;20524;-73
2022/06/13 11:49:39;;;;;;;5.43;1.50;;;;;;;21.92;45.27;102259.91;5112485;28;20058;-73
2022/06/13 11:55:20;;;;;;;;;;;;;;;21.79;43.88;102274.72;5091138;28;20043;-73
2022/06/13 11:57:52;;;;;;;3.65;1.67;;;;;;;21.21;42.88;102272.94;5112505;28;19982;-73
2022/06/13 12:00:17;;;;;;;5.88;1.75;;;;;;;22.21;44.56;102269.13;5113518;28;20024;-73
2022/06/13 12:02:48;;;;;;;4.72;1.40;;;;;;;25.12;38.20;102258.19;5116097;28;20097;-73
2022/06/13 12:05:22;;;;;;;4.38;1.30;;;;;;;27.42;33.94;102256.09;5116990;28;20015;-73
2022/06/13 12:07:52;;;;;;;4.55;1.35;;;;;;;28.79;31.75;102259.25;5116689;28;20023;-73
2022/06/13 12:10:23;;;;;;;5.30;1.30;;;;;;;29.91;30.46;102259.13;5116397;28;20031;-73